Time;durP1;ratioP1;P1;durP2;ratioP2;P2;SDS_P1;SDS_P2;PMS_P1;PMS_P2;Temp;Humidity;BMP_temperature;BMP_pressure;BME280_temperature;BME280_humidity;BME280_pressure;Samples;Min_cycle;Max_cycle;Signal;HPM_P1;HPM_P2
2024/01/16 00:01:21;;;;;;;3.60;2.10;;;;;;;-0.82;100.00;97261.75;6097434;19;20324;-71
2024/01/16 00:03:21;;;;;;;8.00;2.08;;;;;;;-0.88;100.00;97261.16;6094863;19;20006;-71
2024/01/16 00:05:21;;;;;;;3.70;2.45;;;;;;;-0.90;100.00;97265.34;6093515;19;20075;-71
2024/01/16 00:07:22;;;;;;;3.20;2.22;;;;;;;-0.93;100.00;97264.06;6094859;19;20686;-71
2024/01/16 00:09:23;;;;;;;4.10;2.20;;;;;;;-0.88;100.00;97266.59;6095762;19;20009;-71
2024/01/16 00:11:23;;;;;;;6.03;2.58;;;;;;;-0.82;100.00;97280.75;6095084;19;20017;-71
2024/01/16 00:13:24;;;;;;;4.15;2.38;;;;;;;-0.83;100.00;97271.00;6095895;19;20712;-71
2024/01/16 00:15:24;;;;;;;4.95;2.10;;;;;;;-0.83;100.00;97275.63;6094992;19;20003;-71
2024/01/16 00:17:24;;;;;;;3.45;2.45;;;;;;;-0.77;100.00;97272.41;6093859;19;20167;-71
2024/01/16 00:19:24;;;;;;;3.67;2.13;;;;;;;-0.81;100.00;97276.91;6095942;19;19999;-71
2024/01/16 00:21:25;;;;;;;4.80;2.65;;;;;;;-0.75;100.00;97286.44;6095379;19;20022;-71
2024/01/16 00:23:25;;;;;;;3.53;2.15;;;;;;;-0.78;100.00;97289.81;6095697;19;19998;-70
2024/01/16 00:25:26;;;;;;;3.10;2.38;;;;;;;-0.76;100.00;97278.63;6094750;19;20019;-71
2024/01/16 00:27:26;;;;;;;6.43;2.20;;;;;;;-0.73;100.00;97284.19;6095422;19;20003;-71
2024/01/16 00:29:27;;;;;;;4.55;2.40;;;;;;;-0.70;100.00;97294.38;6095908;19;19994;-70
2024/01/16 00:31:28;;;;;;;4.03;2.08;;;;;;;-0.70;100.00;97288.16;6095052;19;19999;-71
2024/01/16 00:33:28;;;;;;;3.42;1.95;;;;;;;-0.73;100.00;97286.91;6095499;19;20540;-71
2024/01/16 00:35:28;;;;;;;4.00;2.30;;;;;;;-0.72;100.00;97285.78;6094574;19;20010;-71
2024/01/16 00:37:29;;;;;;;4.15;2.35;;;;;;;-0.71;100.00;97289.28;6095194;19;20006;-71
2024/01/16 00:39:29;;;;;;;2.65;2.13;;;;;;;-0.66;100.00;97297.25;6094819;19;20431;-71
2024/01/16 00:41:29;;;;;;;4.22;2.50;;;;;;;-0.66;100.00;97298.03;6095240;19;20007;-71
2024/01/16 00:43:30;;;;;;;5.65;2.33;;;;;;;-0.65;100.00;97304.25;6094390;19;20003;-71
2024/01/16 00:45:30;;;;;;;3.65;2.35;;;;;;;-0.63;100.00;97305.50;6093651;19;20006;-71
2024/01/16 00:47:30;;;;;;;4.47;2.25;;;;;;;-0.62;100.00;97301.66;6092914;19;19999;-71
2024/01/16 00:49:31;;;;;;;5.72;2.33;;;;;;;-0.62;100.00;97301.66;6110662;19;20604;-71
2024/01/16 00:51:31;;;;;;;3.95;2.22;;;;;;;-0.65;100.00;97296.13;6109825;19;20014;-70
2024/01/16 00:53:31;;;;;;;3.10;2.42;;;;;;;-0.62;100.00;97296.22;6109554;19;20024;-71
2024/01/16 00:55:31;;;;;;;2.63;2.00;;;;;;;-0.59;100.00;97308.34;6109003;19;20451;-71
2024/01/16 00:57:32;;;;;;;2.70;2.10;;;;;;;-0.57;100.00;97306.09;6107222;19;20007;-71
2024/01/16 00:59:32;;;;;;;3.90;2.22;;;;;;;-0.60;100.00;97318.41;6108385;19;20332;-71
2024/01/16 01:01:32;;;;;;;2.95;2.20;;;;;;;-0.60;100.00;97310.25;6110259;19;20301;-71
2024/01/16 01:03:33;;;;;;;4.60;1.98;;;;;;;-0.57;100.00;97316.97;6105811;19;20015;-70
2024/01/16 01:05:33;;;;;;;5.22;2.10;;;;;;;-0.63;100.00;97316.38;6108776;19;20009;-71
2024/01/16 01:07:33;;;;;;;5.45;2.10;;;;;;;-0.62;100.00;97312.53;6108327;19;20432;-71
2024/01/16 01:09:34;;;;;;;4.85;2.17;;;;;;;-0.60;100.00;97323.06;6109364;19;20019;-71
2024/01/16 01:11:34;;;;;;;4.78;2.40;;;;;;;-0.67;100.00;97323.59;6109115;19;20003;-71
2024/01/16 01:13:34;;;;;;;4.25;1.98;;;;;;;-0.67;100.00;97314.66;6109526;19;20002;-71
2024/01/16 01:15:35;;;;;;;3.95;2.10;;;;;;;-0.62;100.00;97325.31;6106356;19;19995;-71
2024/01/16 01:17:35;;;;;;;5.13;2.67;;;;;;;-0.64;100.00;97322.16;6109016;19;20394;-71
2024/01/16 01:19:35;;;;;;;2.10;1.90;;;;;;;-0.65;100.00;97320.56;6108342;19;20018;-71
2024/01/16 01:21:36;;;;;;;3.25;1.90;;;;;;;-0.63;100.00;97329.16;6109792;19;20002;-71
2024/01/16 01:23:36;;;;;;;3.83;1.83;;;;;;;-0.64;100.00;97341.16;6109250;19;20006;-71
2024/01/16 01:25:36;;;;;;;5.45;2.35;;;;;;;-0.54;100.00;97331.81;6107824;19;20001;-71
2024/01/16 01:27:37;;;;;;;7.75;2.53;;;;;;;-0.58;100.00;97345.25;6109009;19;20002;-71
2024/01/16 01:29:38;;;;;;;3.60;2.08;;;;;;;-0.65;100.00;97343.09;6108867;19;19998;-71
2024/01/16 01:31:38;;;;;;;5.20;2.30;;;;;;;-0.64;100.00;97343.88;6107720;19;20007;-71
2024/01/16 01:33:42;;;;;;;3.38;2.53;;;;;;;-0.63;100.00;97350.91;6109316;19;19998;-71
2024/01/16 01:35:42;;;;;;;3.90;1.95;;;;;;;-0.51;100.00;97363.72;6107433;19;19999;-71
2024/01/16 01:37:43;;;;;;;5.20;2.05;;;;;;;-0.61;100.00;97346.72;6107642;19;20010;-71
2024/01/16 01:39:43;;;;;;;5.50;2.30;;;;;;;-0.62;100.00;97356.00;6107852;19;20008;-71
2024/01/16 01:41:43;;;;;;;3.22;2.03;;;;;;;-0.64;100.00;97362.91;6108371;19;20514;-71
2024/01/16 01:43:43;;;;;;;3.03;1.90;;;;;;;-0.68;100.00;97357.31;6107243;19;20015;-71
2024/01/16 01:45:44;;;;;;;4.55;2.30;;;;;;;-0.58;100.00;97365.09;6107141;19;20002;-71
2024/01/16 01:47:45;;;;;;;4.60;2.50;;;;;;;-0.57;100.00;97374.81;6108208;19;20448;-71
2024/01/16 01:49:45;;;;;;;2.92;2.20;;;;;;;-0.68;100.00;97370.91;6106394;19;20003;-70
2024/01/16 01:51:46;;;;;;;3.42;2.05;;;;;;;-0.62;100.00;97368.78;6108149;19;20010;-71
2024/01/16 01:53:49;;;;;;;3.40;2.08;;;;;;;-0.61;100.00;97364.94;6107500;19;20534;-70
2024/01/16 01:55:50;;;;;;;3.33;1.73;;;;;;;-0.59;100.00;97381.69;6108384;19;19999;-71
2024/01/16 01:57:50;;;;;;;4.55;2.05;;;;;;;-0.64;100.00;97376.47;6107101;19;20331;-71
2024/01/16 01:59:51;;;;;;;2.78;2.17;;;;;;;-0.67;100.00;97383.34;6106744;19;20363;-71
2024/01/16 02:01:52;;;;;;;3.55;2.15;;;;;;;-0.74;100.00;97385.81;6108316;19;20376;-71
2024/01/16 02:03:55;;;;;;;3.17;1.90;;;;;;;-0.65;100.00;97383.84;6107249;19;20006;-71
2024/01/16 02:05:56;;;;;;;4.07;2.20;;;;;;;-0.70;100.00;97378.59;6108090;19;20101;-71
2024/01/16 02:07:56;;;;;;;4.10;2.42;;;;;;;-0.66;100.00;97384.97;6107042;19;20357;-70
2024/01/16 02:09:57;;;;;;;4.35;2.42;;;;;;;-0.69;100.00;97391.03;6107700;19;20006;-71
2024/01/16 02:11:57;;;;;;;3.35;2.28;;;;;;;-0.75;100.00;97397.78;6108004;19;20030;-70
2024/01/16 02:13:58;;;;;;;4.25;2.30;;;;;;;-0.81;100.00;97399.13;6105641;19;20050;-70
2024/01/16 02:15:58;;;;;;;2.92;2.15;;;;;;;-0.88;100.00;97394.22;6107652;19;20453;-71
2024/01/16 02:17:59;;;;;;;3.35;2.35;;;;;;;-0.92;100.00;97395.19;6107105;19;20011;-71
2024/01/16 02:19:59;;;;;;;3.17;2.00;;;;;;;-0.87;100.00;97401.22;6107455;19;20006;-71
2024/01/16 02:22:02;;;;;;;7.53;2.47;;;;;;;-0.78;100.00;97408.53;6108271;19;20017;-71
2024/01/16 02:24:05;;;;;;;4.93;2.15;;;;;;;-0.76;100.00;97417.94;6105655;19;20036;-71
2024/01/16 02:26:05;;;;;;;4.25;2.45;;;;;;;-0.77;100.00;97419.06;6108181;19;20010;-71
2024/01/16 02:28:05;;;;;;;6.32;2.97;;;;;;;-0.85;100.00;97428.06;6109912;19;20086;-71
2024/01/16 02:30:06;;;;;;;4.80;2.50;;;;;;;-0.97;100.00;97425.25;6112052;19;20016;-71
2024/01/16 02:32:07;;;;;;;5.35;2.80;;;;;;;-1.20;100.00;97425.53;6113599;19;20055;-71
2024/01/16 02:34:07;;;;;;;9.95;2.90;;;;;;;-1.22;100.00;97422.34;6110815;19;20035;-71
2024/01/16 02:36:07;;;;;;;5.15;2.97;;;;;;;-1.32;100.00;97424.66;6112320;19;20029;-71
2024/01/16 02:38:08;;;;;;;4.10;2.40;;;;;;;-1.29;100.00;97422.06;6111517;19;20035;-71
2024/01/16 02:40:09;;;;;;;7.07;2.70;;;;;;;-1.25;100.00;97422.19;6113378;19;20054;-70
2024/01/16 02:42:09;;;;;;;6.50;2.80;;;;;;;-1.24;100.00;97421.06;6110467;19;20485;-70
2024/01/16 02:44:10;;;;;;;3.45;2.28;;;;;;;-1.15;100.00;97400.13;6111183;19;19995;-70
2024/01/16 02:46:10;;;;;;;3.38;2.53;;;;;;;-1.10;100.00;97416.22;6112193;19;19999;-70
2024/01/16 02:48:11;;;;;;;3.10;2.40;;;;;;;-1.02;100.00;97423.53;6110531;19;20523;-70
2024/01/16 02:50:11;;;;;;;3.45;2.22;;;;;;;-1.02;100.00;97420.00;6111849;19;20368;-70
2024/01/16 02:52:12;;;;;;;5.05;2.58;;;;;;;-1.06;100.00;97417.16;6112798;19;20305;-71
2024/01/16 02:54:12;;;;;;;4.88;3.10;;;;;;;-1.01;100.00;97421.59;6111267;19;20104;-71
2024/01/16 02:56:12;;;;;;;6.65;2.80;;;;;;;-1.11;100.00;97414.63;6112061;19;20033;-71
2024/01/16 02:58:13;;;;;;;4.93;2.47;;;;;;;-1.11;100.00;97420.06;6110579;19;20066;-71
2024/01/16 03:00:13;;;;;;;4.57;2.80;;;;;;;-1.16;100.00;97422.94;6112301;19;20078;-71
2024/01/16 03:02:14;;;;;;;4.85;2.55;;;;;;;-1.23;100.00;97428.13;6112141;19;20007;-71
2024/01/16 03:04:14;;;;;;;6.65;2.63;;;;;;;-1.25;100.00;97427.63;6110456;19;20321;-71
2024/01/16 03:06:24;;;;;;;4.13;2.55;;;;;;;-1.39;100.00;97430.56;6111670;19;20016;-71
2024/01/16 03:08:25;;;;;;;6.22;2.63;;;;;;;-1.49;100.00;97423.59;6112488;19;20459;-71
2024/01/16 03:10:25;;;;;;;3.85;2.28;;;;;;;-1.46;100.00;97422.16;6112426;19;20011;-71
2024/01/16 03:12:25;;;;;;;4.60;2.28;;;;;;;-1.47;100.00;97432.19;6113387;19;20090;-71
2024/01/16 03:14:26;;;;;;;5.15;2.42;;;;;;;-1.54;100.00;97431.09;6112164;19;20544;-71
2024/01/16 03:16:27;;;;;;;4.07;2.38;;;;;;;-1.51;100.00;97441.31;6113087;19;20018;-71
2024/01/16 03:18:27;;;;;;;7.82;2.83;;;;;;;-1.50;100.00;97442.88;6111046;19;20006;-71
2024/01/16 03:20:28;;;;;;;3.70;2.28;;;;;;;-1.54;100.00;97442.75;6113030;19;20026;-70
2024/01/16 03:22:29;;;;;;;3.53;2.08;;;;;;;-1.52;100.00;97439.72;6112581;19;20014;-71
2024/01/16 03:24:29;;;;;;;4.60;2.33;;;;;;;-1.53;100.00;97446.25;6111456;19;20002;-71
2024/01/16 03:26:29;;;;;;;3.00;2.10;;;;;;;-1.40;100.00;97441.75;6112237;19;20009;-70
2024/01/16 03:28:29;;;;;;;2.85;2.10;;;;;;;-1.46;100.00;97443.84;6111533;19;20062;-70
2024/01/16 03:30:30;;;;;;;5.03;2.47;;;;;;;-1.35;100.00;97463.28;6112969;19;20074;-70
2024/01/16 03:32:30;;;;;;;3.00;2.10;;;;;;;-1.34;100.00;97468.38;6113021;19;20013;-70
2024/01/16 03:34:31;;;;;;;4.00;2.13;;;;;;;-1.31;100.00;97465.03;6110238;19;20382;-70
2024/01/16 03:36:31;;;;;;;5.00;2.28;;;;;;;-1.20;100.00;97460.81;6111543;19;20010;-70
2024/01/16 03:38:32;;;;;;;8.07;2.50;;;;;;;-1.21;100.00;97466.56;6109834;19;20430;-70
2024/01/16 03:40:34;;;;;;;3.75;2.13;;;;;;;-1.22;100.00;97479.34;6112557;19;20020;-70
2024/01/16 03:42:34;;;;;;;4.97;2.38;;;;;;;-1.27;100.00;97471.38;6112408;19;20662;-70
2024/01/16 03:44:41;;;;;;;3.75;2.63;;;;;;;-1.26;100.00;97477.59;6110859;19;20010;-70
2024/01/16 03:46:41;;;;;;;4.85;2.30;;;;;;;-1.26;100.00;97478.41;6111866;19;20015;-70
2024/01/16 03:48:41;;;;;;;3.95;2.35;;;;;;;-1.35;100.00;97496.63;6099711;19;20017;-70
2024/01/16 03:50:43;;;;;;;6.47;2.55;;;;;;;-1.36;100.00;97480.69;6111674;19;20374;-70
2024/01/16 03:52:44;;;;;;;6.18;2.33;;;;;;;-1.38;100.00;97474.78;6112255;19;20086;-70
2024/01/16 03:54:44;;;;;;;4.40;2.33;;;;;;;-1.41;100.00;97478.91;6110075;19;20547;-70
2024/01/16 03:56:44;;;;;;;3.88;2.38;;;;;;;-1.34;100.00;97481.94;6109678;19;20010;-70
2024/01/16 03:58:44;;;;;;;3.90;2.25;;;;;;;-1.36;100.00;97484.19;6110685;19;20013;-71
2024/01/16 04:00:45;;;;;;;3.90;2.33;;;;;;;-1.28;100.00;97490.72;6111896;19;20462;-71
2024/01/16 04:02:46;;;;;;;7.72;3.03;;;;;;;-1.29;100.00;97481.78;6109388;19;20014;-70
2024/01/16 04:04:46;;;;;;;3.63;2.10;;;;;;;-1.37;100.00;97495.38;6110707;19;20055;-70
2024/01/16 04:06:46;;;;;;;4.28;2.03;;;;;;;-1.38;100.00;97491.06;6110244;19;20751;-70
2024/01/16 04:08:47;;;;;;;3.28;2.20;;;;;;;-1.41;100.00;97489.78;6109240;19;19998;-70
2024/01/16 04:10:47;;;;;;;2.55;2.20;;;;;;;-1.50;100.00;97492.50;6110854;19;20062;-70
2024/01/16 04:12:47;;;;;;;3.45;2.33;;;;;;;-1.54;100.00;97490.78;6111366;19;20009;-71
2024/01/16 04:14:48;;;;;;;6.20;2.40;;;;;;;-1.56;100.00;97488.41;6108220;19;20450;-71
2024/01/16 04:16:48;;;;;;;5.50;2.40;;;;;;;-1.56;100.00;97487.59;6106873;19;20110;-71
2024/01/16 04:18:48;;;;;;;5.07;2.10;;;;;;;-1.59;100.00;97493.66;6110378;19;20006;-71
2024/01/16 04:20:49;;;;;;;4.70;2.42;;;;;;;-1.71;100.00;97488.91;6110248;19;20070;-71
2024/01/16 04:22:50;;;;;;;3.90;2.33;;;;;;;-1.75;100.00;97501.50;6110909;19;20010;-71
2024/01/16 04:24:50;;;;;;;3.80;2.28;;;;;;;-1.81;100.00;97495.47;6110191;19;20007;-71
2024/01/16 04:26:50;;;;;;;5.22;2.50;;;;;;;-1.80;100.00;97498.97;6109775;19;20002;-71
2024/01/16 04:28:51;;;;;;;6.70;2.88;;;;;;;-1.89;100.00;97499.00;6108132;19;20002;-71
2024/01/16 04:30:51;;;;;;;7.15;3.03;;;;;;;-1.98;100.00;97499.00;6110457;19;20319;-71
2024/01/16 04:32:51;;;;;;;3.90;2.40;;;;;;;-2.03;100.00;97492.94;6110791;19;20484;-71
2024/01/16 04:34:52;;;;;;;4.90;2.72;;;;;;;-2.05;100.00;97508.72;6109465;19;20036;-71
2024/01/16 04:36:52;;;;;;;5.40;3.00;;;;;;;-2.05;100.00;97511.44;6109315;19;20020;-71
2024/01/16 04:38:52;;;;;;;5.53;2.88;;;;;;;-2.03;100.00;97507.28;6108649;19;20021;-71
2024/01/16 04:40:53;;;;;;;5.82;2.70;;;;;;;-1.96;100.00;97508.72;6109814;19;20473;-71
2024/01/16 04:42:53;;;;;;;5.97;2.53;;;;;;;-1.97;100.00;97510.63;6110544;19;20013;-71
2024/01/16 04:44:54;;;;;;;6.43;3.13;;;;;;;-1.95;100.00;97496.75;6108205;19;20005;-71
2024/01/16 04:46:54;;;;;;;3.88;3.17;;;;;;;-2.02;100.00;97503.44;6108068;19;20377;-71
2024/01/16 04:48:55;;;;;;;8.52;3.15;;;;;;;-2.06;100.00;97507.94;6097165;19;19999;-71
2024/01/16 04:50:55;;;;;;;7.30;2.88;;;;;;;-2.05;100.00;97511.44;6093952;19;20308;-71
2024/01/16 04:52:55;;;;;;;5.35;2.80;;;;;;;-2.06;100.00;97517.97;6094737;19;20023;-71
2024/01/16 04:54:56;;;;;;;4.45;2.55;;;;;;;-2.02;100.00;97524.34;6093242;19;20010;-71
2024/01/16 04:56:56;;;;;;;4.85;2.70;;;;;;;-2.03;100.00;97514.63;6094378;19;19998;-71
2024/01/16 04:58:57;;;;;;;5.25;3.17;;;;;;;-2.02;100.00;97524.34;6094445;19;20095;-71
2024/01/16 05:00:58;;;;;;;5.00;3.15;;;;;;;-2.05;100.00;97524.97;6094543;19;20513;-71
2024/01/16 05:02:58;;;;;;;3.28;2.67;;;;;;;-2.13;100.00;97518.44;6095279;19;20494;-71
2024/01/16 05:04:59;;;;;;;5.00;2.97;;;;;;;-2.07;100.00;97524.47;6094219;19;20343;-69
2024/01/16 05:06:59;;;;;;;6.18;2.97;;;;;;;-2.13;100.00;97529.28;6095473;19;20019;-70
2024/01/16 05:08:59;;;;;;;5.65;3.03;;;;;;;-2.14;100.00;97527.69;6093821;19;20010;-70
2024/01/16 05:10:59;;;;;;;4.93;3.03;;;;;;;-2.19;100.00;97527.03;6095312;19;20227;-70
2024/01/16 05:13:00;;;;;;;4.97;2.85;;;;;;;-2.19;100.00;97527.03;6094948;19;20011;-70
2024/01/16 05:15:00;;;;;;;5.22;2.47;;;;;;;-2.24;100.00;97517.16;6093825;19;20014;-70
2024/01/16 05:17:01;;;;;;;4.22;2.80;;;;;;;-2.27;100.00;97521.28;6093898;19;20022;-70
2024/01/16 05:19:01;;;;;;;5.05;2.88;;;;;;;-2.21;100.00;97518.44;6094993;19;20336;-70
2024/01/16 05:21:02;;;;;;;6.72;2.80;;;;;;;-2.26;100.00;97520.19;6094205;19;20009;-70
2024/01/16 05:23:02;;;;;;;4.63;3.00;;;;;;;-2.22;100.00;97520.34;6090802;19;20640;-70
2024/01/16 05:25:03;;;;;;;5.00;3.03;;;;;;;-2.31;100.00;97514.94;6092791;19;20016;-70
2024/01/16 05:27:04;;;;;;;4.22;2.67;;;;;;;-2.38;100.00;97528.16;6093746;19;20416;-70
2024/01/16 05:29:04;;;;;;;6.25;2.75;;;;;;;-2.32;100.00;97524.19;6094029;19;20030;-70
2024/01/16 05:31:05;;;;;;;7.50;3.40;;;;;;;-2.37;100.00;97532.44;6094666;19;20042;-71
2024/01/16 05:33:07;;;;;;;5.75;4.00;;;;;;;-2.36;100.00;97530.53;6094611;19;20832;-71
2024/01/16 05:35:09;;;;;;;5.72;2.95;;;;;;;-2.45;100.00;97516.19;6092704;19;20002;-71
2024/01/16 05:37:10;;;;;;;7.60;3.28;;;;;;;-2.46;100.00;97525.44;6093856;19;20003;-71
2024/01/16 05:39:11;;;;;;;4.72;2.70;;;;;;;-2.49;100.00;97520.63;6094059;19;19994;-71
2024/01/16 05:41:11;;;;;;;6.93;2.75;;;;;;;-2.50;100.00;97532.56;6093565;19;20026;-71
2024/01/16 05:43:11;;;;;;;4.93;2.70;;;;;;;-2.53;100.00;97525.88;6092722;19;20011;-71
2024/01/16 05:45:13;;;;;;;6.28;3.15;;;;;;;-2.50;100.00;97525.25;6091521;19;20003;-71
2024/01/16 05:47:13;;;;;;;9.57;5.63;;;;;;;-2.46;100.00;97511.88;6093937;19;19999;-70
2024/01/16 05:49:14;;;;;;;14.05;5.43;;;;;;;-2.46;100.00;97515.38;6105180;19;20783;-70
2024/01/16 05:51:14;;;;;;;8.38;4.40;;;;;;;-2.45;100.00;97516.97;6107324;19;20009;-70
2024/01/16 05:53:14;;;;;;;5.68;3.53;;;;;;;-2.50;100.00;97513.63;6108329;19;20007;-71
2024/01/16 05:55:15;;;;;;;6.55;3.25;;;;;;;-2.49;100.00;97523.34;6105360;19;20010;-71
2024/01/16 05:57:15;;;;;;;7.53;3.35;;;;;;;-2.53;100.00;97523.19;6106722;19;20494;-71
2024/01/16 05:59:16;;;;;;;8.82;4.07;;;;;;;-2.56;100.00;97516.50;6107505;19;20007;-71
2024/01/16 06:01:16;;;;;;;5.82;2.92;;;;;;;-2.56;100.00;97510.28;6107548;19;20074;-70
2024/01/16 06:03:16;;;;;;;6.05;3.67;;;;;;;-2.43;100.00;97511.25;6107762;19;20010;-70
2024/01/16 06:05:17;;;;;;;6.65;3.50;;;;;;;-2.47;100.00;97510.28;6105527;19;20486;-70
2024/01/16 06:07:17;;;;;;;8.18;3.40;;;;;;;-2.47;100.00;97511.09;6105850;19;20010;-70
2024/01/16 06:09:18;;;;;;;5.38;2.60;;;;;;;-2.47;100.00;97511.09;6107058;19;20006;-70
2024/01/16 06:11:20;;;;;;;3.20;2.35;;;;;;;-2.44;100.00;97521.28;6106790;19;20006;-70
2024/01/16 06:13:21;;;;;;;4.90;2.77;;;;;;;-2.48;100.00;97522.22;6108068;19;20333;-70
2024/01/16 06:15:21;;;;;;;6.97;2.38;;;;;;;-2.40;100.00;97516.84;6106020;19;20470;-70
2024/01/16 06:17:22;;;;;;;6.15;2.90;;;;;;;-2.43;100.00;97525.56;6106637;19;20003;-70
2024/01/16 06:19:22;;;;;;;5.63;2.75;;;;;;;-2.45;100.00;97524.31;6106464;19;20558;-71
2024/01/16 06:21:22;;;;;;;7.00;3.13;;;;;;;-2.50;100.00;97519.81;6106824;19;20070;-71
2024/01/16 06:23:23;;;;;;;6.05;3.55;;;;;;;-2.49;100.00;97524.13;6105739;19;20007;-71
2024/01/16 06:25:23;;;;;;;6.85;4.55;;;;;;;-2.53;100.00;97533.22;6106100;19;20007;-71
2024/01/16 06:27:23;;;;;;;6.18;3.88;;;;;;;-2.55;100.00;97522.69;6106337;19;20014;-71
2024/01/16 06:29:23;;;;;;;8.13;2.75;;;;;;;-2.59;100.00;97530.66;6106360;19;20009;-71
2024/01/16 06:31:26;;;;;;;6.10;2.67;;;;;;;-2.55;100.00;97530.84;6105457;19;19998;-71
2024/01/16 06:33:26;;;;;;;6.38;2.78;;;;;;;-2.56;100.00;97527.31;6107475;19;20467;-71
2024/01/16 06:35:26;;;;;;;6.97;2.85;;;;;;;-2.50;100.00;97535.28;6103394;19;20031;-71
2024/01/16 06:37:27;;;;;;;6.65;2.72;;;;;;;-2.53;100.00;97525.09;6104285;19;20010;-71
2024/01/16 06:39:27;;;;;;;6.70;2.28;;;;;;;-2.54;100.00;97529.72;6102806;19;20696;-71
2024/01/16 06:41:28;;;;;;;6.50;2.55;;;;;;;-2.56;100.00;97521.91;6107000;19;20026;-71
2024/01/16 06:43:28;;;;;;;5.47;2.53;;;;;;;-2.56;100.00;97523.81;6105654;19;20467;-71
2024/01/16 06:45:28;;;;;;;5.00;2.75;;;;;;;-2.57;100.00;97523.00;6105306;19;20458;-71
2024/01/16 06:47:28;;;;;;;4.30;2.65;;;;;;;-2.46;100.00;97528.13;6106363;19;20007;-71
2024/01/16 06:49:29;;;;;;;5.03;2.75;;;;;;;-2.52;100.00;97522.06;6105922;19;20014;-71
2024/01/16 06:51:29;;;;;;;5.75;3.00;;;;;;;-2.59;100.00;97529.84;6105843;19;20007;-71
2024/01/16 06:53:29;;;;;;;5.60;2.63;;;;;;;-2.59;100.00;97530.66;6107070;19;20003;-71
2024/01/16 06:55:30;;;;;;;12.23;3.25;;;;;;;-2.65;100.00;97529.22;6105133;19;20022;-72
2024/01/16 06:57:30;;;;;;;7.28;2.88;;;;;;;-2.64;100.00;97538.13;6105142;19;20450;-72
2024/01/16 06:59:30;;;;;;;5.38;2.63;;;;;;;-2.68;100.00;97526.31;6103964;19;20007;-71
2024/01/16 07:01:31;;;;;;;5.78;2.92;;;;;;;-2.69;100.00;97540.97;6105952;19;20006;-71
2024/01/16 07:03:31;;;;;;;8.57;2.80;;;;;;;-2.73;100.00;97546.25;6105995;19;20063;-71
2024/01/16 07:05:31;;;;;;;5.72;2.75;;;;;;;-2.74;100.00;97546.53;6104304;19;20125;-71
2024/01/16 07:07:31;;;;;;;8.05;3.00;;;;;;;-2.70;100.00;97542.91;6105826;19;20011;-71
2024/01/16 07:09:32;;;;;;;7.53;2.97;;;;;;;-2.70;100.00;97547.50;6107078;19;20007;-71
2024/01/16 07:11:32;;;;;;;6.50;2.75;;;;;;;-2.71;100.00;97554.03;6106689;19;20007;-72
2024/01/16 07:13:32;;;;;;;9.68;4.78;;;;;;;-2.67;100.00;97561.22;6109176;19;20006;-71
2024/01/16 07:15:33;;;;;;;12.85;6.15;;;;;;;-2.58;100.00;97572.06;6110842;19;20034;-71
2024/01/16 07:17:33;;;;;;;6.32;3.40;;;;;;;-2.61;100.00;97575.41;6109429;19;20007;-71
2024/01/16 07:19:33;;;;;;;6.03;2.78;;;;;;;-2.55;100.00;97566.03;6111952;19;20362;-71
2024/01/16 07:21:34;;;;;;;4.10;2.40;;;;;;;-2.58;100.00;97577.47;6111286;19;20024;-71
2024/01/16 07:23:34;;;;;;;7.60;3.17;;;;;;;-2.64;100.00;97576.06;6110430;19;20006;-71
2024/01/16 07:25:34;;;;;;;6.15;2.90;;;;;;;-2.67;100.00;97574.75;6111221;19;20042;-71
2024/01/16 07:27:35;;;;;;;9.30;3.95;;;;;;;-2.65;100.00;97579.84;6111386;19;20006;-71
2024/01/16 07:29:35;;;;;;;6.22;3.30;;;;;;;-2.61;100.00;97589.75;6111466;19;20013;-71
2024/01/16 07:31:39;;;;;;;5.97;3.10;;;;;;;-2.59;100.00;97584.00;6111211;19;20074;-72
2024/01/16 07:33:39;;;;;;;8.55;3.55;;;;;;;-2.56;100.00;97592.31;6109812;19;20016;-71
2024/01/16 07:35:41;;;;;;;7.50;3.08;;;;;;;-2.51;100.00;97591.38;6111663;19;20010;-71
2024/01/16 07:37:41;;;;;;;4.83;2.50;;;;;;;-2.41;100.00;97593.78;6109229;19;19999;-71
2024/01/16 07:39:41;;;;;;;7.65;2.70;;;;;;;-2.33;100.00;97603.84;6110808;19;20006;-71
2024/01/16 07:41:42;;;;;;;4.80;2.88;;;;;;;-2.30;100.00;97599.72;6112137;19;20494;-71
2024/01/16 07:43:42;;;;;;;6.18;3.10;;;;;;;-2.24;100.00;97594.94;6111828;19;20014;-71
2024/01/16 07:45:42;;;;;;;15.45;6.90;;;;;;;-2.17;100.00;97603.41;6109832;19;20030;-71
2024/01/16 07:47:43;;;;;;;8.95;4.50;;;;;;;-2.02;100.00;97605.66;6111801;19;20005;-71
2024/01/16 07:49:43;;;;;;;6.00;3.47;;;;;;;-2.03;100.00;97598.66;6109813;19;20326;-71
2024/01/16 07:51:43;;;;;;;8.35;3.38;;;;;;;-1.98;100.00;97595.78;6111788;19;20002;-71
2024/01/16 07:53:44;;;;;;;5.32;3.30;;;;;;;-1.97;100.00;97600.09;6111911;19;20017;-71
2024/01/16 07:55:44;;;;;;;5.85;2.88;;;;;;;-1.99;100.00;97605.00;6110019;19;20410;-71
2024/01/16 07:57:44;;;;;;;13.57;4.90;;;;;;;-1.95;100.00;97597.84;6109262;19;20011;-71
2024/01/16 07:59:45;;;;;;;10.95;4.57;;;;;;;-1.90;100.00;97605.03;6109707;19;20383;-71
2024/01/16 08:01:45;;;;;;;10.75;4.43;;;;;;;-1.92;100.00;97602.63;6110841;19;20007;-71
2024/01/16 08:03:46;;;;;;;7.00;4.38;;;;;;;-1.92;100.00;97599.91;6111008;19;20399;-71
2024/01/16 08:05:46;;;;;;;4.93;3.72;;;;;;;-1.85;100.00;97602.97;6110136;19;20014;-71
2024/01/16 08:07:46;;;;;;;5.00;3.50;;;;;;;-1.85;100.00;97600.25;6110653;19;20106;-71
2024/01/16 08:09:47;;;;;;;4.90;3.22;;;;;;;-1.92;100.00;97604.53;6110504;19;20005;-71
2024/01/16 08:11:47;;;;;;;7.65;3.50;;;;;;;-1.91;100.00;97603.44;6109458;19;20017;-71
2024/01/16 08:13:47;;;;;;;4.78;3.28;;;;;;;-1.93;100.00;97608.38;6110825;19;20011;-71
2024/01/16 08:15:48;;;;;;;7.22;4.55;;;;;;;-1.92;100.00;97597.22;6110943;19;20601;-71
2024/01/16 08:17:48;;;;;;;7.63;3.55;;;;;;;-1.91;100.00;97601.50;6109929;19;20040;-71
2024/01/16 08:19:48;;;;;;;4.53;2.97;;;;;;;-1.94;100.00;97591.31;6111066;19;20003;-71
2024/01/16 08:21:49;;;;;;;7.43;3.00;;;;;;;-1.93;100.00;97601.03;6110504;19;20006;-71
2024/01/16 08:23:49;;;;;;;5.55;3.17;;;;;;;-1.91;100.00;97593.38;6109111;19;20032;-71
2024/01/16 08:25:51;;;;;;;7.97;3.10;;;;;;;-1.89;100.00;97590.38;6108474;19;20025;-71
2024/01/16 08:27:51;;;;;;;4.23;2.60;;;;;;;-1.83;100.00;97599.94;6110536;19;20003;-71
2024/01/16 08:29:52;;;;;;;5.30;2.83;;;;;;;-1.81;100.00;97600.44;6111022;19;20362;-71
2024/01/16 08:31:52;;;;;;;7.82;3.15;;;;;;;-1.80;100.00;97602.81;6109850;19;20111;-71
2024/01/16 08:33:55;;;;;;;5.45;2.65;;;;;;;-1.78;100.00;97606.00;6110036;19;20335;-71
2024/01/16 08:35:56;;;;;;;6.82;2.83;;;;;;;-1.76;100.00;97605.66;6110406;19;20002;-71
2024/01/16 08:37:56;;;;;;;5.72;2.60;;;;;;;-1.72;100.00;97595.81;6110129;19;20034;-71
2024/01/16 08:39:56;;;;;;;5.20;2.55;;;;;;;-1.68;100.00;97601.38;6107201;19;19998;-71
2024/01/16 08:41:57;;;;;;;6.20;3.17;;;;;;;-1.65;100.00;97593.41;6110702;19;20007;-71
2024/01/16 08:43:57;;;;;;;4.97;2.63;;;;;;;-1.56;100.00;97596.91;6109040;19;20347;-71
2024/01/16 08:45:58;;;;;;;6.72;2.72;;;;;;;-1.54;100.00;97593.88;6109956;19;20030;-71
2024/01/16 08:47:59;;;;;;;5.60;2.80;;;;;;;-1.53;100.00;97598.97;6099095;19;20530;-71
2024/01/16 08:49:59;;;;;;;7.47;3.03;;;;;;;-1.52;100.00;97602.47;6108835;19;20011;-71
2024/01/16 08:52:00;;;;;;;6.25;2.88;;;;;;;-1.49;100.00;97605.38;6108948;19;20003;-71
2024/01/16 08:54:00;;;;;;;5.55;2.75;;;;;;;-1.52;100.00;97608.69;6108761;19;20467;-71
2024/01/16 08:56:00;;;;;;;7.38;2.85;;;;;;;-1.50;100.00;97602.94;6107858;19;20364;-71
2024/01/16 08:58:01;;;;;;;5.20;2.90;;;;;;;-1.45;100.00;97605.50;6109146;19;20392;-71
2024/01/16 09:00:03;;;;;;;7.80;2.55;;;;;;;-1.39;100.00;97615.09;6107971;19;20015;-71
2024/01/16 09:02:03;;;;;;;9.23;3.47;;;;;;;-1.39;100.00;97617.00;6109115;19;20844;-71
2024/01/16 09:04:03;;;;;;;9.05;3.28;;;;;;;-1.30;100.00;97621.31;6108545;19;20545;-71
2024/01/16 09:06:04;;;;;;;8.40;4.35;;;;;;;-1.30;100.00;97612.38;6107809;19;20003;-71
2024/01/16 09:08:04;;;;;;;12.57;5.75;;;;;;;-1.31;100.00;97624.34;6106350;19;20206;-71
2024/01/16 09:10:05;;;;;;;13.07;6.80;;;;;;;-1.31;100.00;97617.00;6108740;19;19990;-71
2024/01/16 09:12:06;;;;;;;12.00;5.65;;;;;;;-1.28;100.00;97629.91;6108518;19;19994;-71
2024/01/16 09:14:06;;;;;;;14.82;6.25;;;;;;;-1.28;100.00;97631.84;6108506;19;19991;-71
2024/01/16 09:16:06;;;;;;;7.50;4.80;;;;;;;-1.29;100.00;97624.81;6108929;19;19998;-71
2024/01/16 09:18:06;;;;;;;7.47;4.03;;;;;;;-1.20;100.00;97631.03;6107515;19;20030;-71
2024/01/16 09:20:07;;;;;;;15.93;4.43;;;;;;;-1.10;100.00;97632.59;6107980;19;20001;-71